Time;durP1;ratioP1;P1;durP2;ratioP2;P2;SDS_P1;SDS_P2;PMS_P1;PMS_P2;Temp;Humidity;BMP_temperature;BMP_pressure;BME280_temperature;BME280_humidity;BME280_pressure;Samples;Min_cycle;Max_cycle;Signal;HPM_P1;HPM_P2
2021/03/30 00:01:14;;;;;;;7.88;5.32;;;8.30;99.90;;;;;;5017714;28;20084;-78
2021/03/30 00:03:40;;;;;;;6.80;5.03;;;7.50;99.90;;;;;;5014734;28;20033;-78
2021/03/30 00:06:05;;;;;;;6.78;4.00;;;7.60;99.90;;;;;;5015181;28;20386;-78
2021/03/30 00:08:31;;;;;;;7.07;4.45;;;7.60;99.90;;;;;;5014796;28;20030;-78
2021/03/30 00:10:57;;;;;;;7.20;4.10;;;7.60;99.90;;;;;;5014915;28;20132;-78
2021/03/30 00:13:24;;;;;;;9.88;4.47;;;7.50;99.90;;;;;;5014875;28;20037;-78
2021/03/30 00:15:49;;;;;;;6.40;4.32;;;7.60;99.90;;;;;;5014812;28;20508;-78
2021/03/30 00:18:16;;;;;;;9.80;3.83;;;7.60;99.90;;;;;;5014534;28;20387;-78
2021/03/30 00:20:42;;;;;;;6.45;3.70;;;7.80;99.90;;;;;;5014353;28;20034;-78
2021/03/30 00:23:08;;;;;;;6.53;3.05;;;7.90;99.90;;;;;;5015007;28;20026;-78
2021/03/30 00:25:33;;;;;;;3.53;2.95;;;7.80;99.90;;;;;;5013406;28;20547;-78
2021/03/30 00:27:59;;;;;;;4.30;2.80;;;7.90;99.90;;;;;;5014753;28;20032;-78
2021/03/30 00:30:25;;;;;;;3.88;3.00;;;7.90;99.90;;;;;;5029307;28;20053;-78
2021/03/30 00:32:51;;;;;;;6.25;2.97;;;7.80;99.90;;;;;;5032558;28;20502;-78
2021/03/30 00:35:18;;;;;;;7.68;3.33;;;7.60;99.90;;;;;;5034248;28;20026;-78
2021/03/30 00:37:43;;;;;;;6.55;3.40;;;7.50;99.90;;;;;;5034085;28;20017;-78
2021/03/30 00:40:11;;;;;;;5.97;4.00;;;7.50;99.90;;;;;;5034185;28;20030;-78
2021/03/30 00:42:38;;;;;;;3.80;3.15;;;7.50;99.90;;;;;;5033349;28;20032;-78
2021/03/30 00:45:06;;;;;;;3.65;3.10;;;7.50;99.90;;;;;;5032772;28;20443;-78
2021/03/30 00:47:33;;;;;;;6.28;3.13;;;7.20;99.90;;;;;;5033682;28;20509;-78
2021/03/30 00:49:59;;;;;;;6.00;3.63;;;7.20;99.90;;;;;;5033974;28;20041;-78
2021/03/30 00:52:25;;;;;;;5.10;3.15;;;7.30;99.90;;;;;;5033987;28;20021;-78
2021/03/30 00:54:51;;;;;;;4.60;3.28;;;7.20;99.90;;;;;;5033051;28;20064;-78
2021/03/30 00:57:18;;;;;;;6.70;3.45;;;7.20;99.90;;;;;;5033479;28;20095;-78
2021/03/30 00:59:45;;;;;;;5.82;3.13;;;7.40;99.90;;;;;;5033467;28;20090;-78
2021/03/30 01:02:11;;;;;;;4.82;3.60;;;7.40;99.90;;;;;;5033506;28;20378;-78
2021/03/30 01:04:37;;;;;;;13.30;4.50;;;7.30;99.90;;;;;;5033548;28;20044;-78
2021/03/30 01:07:03;;;;;;;7.97;4.72;;;7.30;99.90;;;;;;5033838;28;20033;-78
2021/03/30 01:09:50;;;;;;;10.23;5.25;;;7.40;99.90;;;;;;5033514;28;20037;-78
2021/03/30 01:12:51;;;;;;;6.72;4.28;;;7.40;99.90;;;;;;5033568;28;20185;-78
2021/03/30 01:15:37;;;;;;;3.85;3.17;;;7.20;99.90;;;;;;5033386;28;20493;-78
2021/03/30 01:18:29;;;;;;;6.07;3.60;;;6.80;99.90;;;;;;5033135;28;20045;-78
2021/03/30 01:21:03;;;;;;;6.70;4.00;;;6.70;99.90;;;;;;5033192;28;20025;-78
2021/03/30 01:24:03;;;;;;;8.57;4.78;;;6.70;99.90;;;;;;5033342;28;20037;-78
2021/03/30 01:26:52;;;;;;;8.80;4.90;;;6.40;99.90;;;;;;5030015;28;20053;-78
2021/03/30 01:29:44;;;;;;;7.68;5.60;;;6.50;99.90;;;;;;4991466;28;20101;-78
2021/03/30 01:32:13;;;;;;;6.78;4.10;;;6.40;99.90;;;;;;4991350;28;20042;-78
2021/03/30 01:34:42;;;;;;;6.97;5.40;;;6.70;99.90;;;;;;4991478;28;20447;-78
2021/03/30 01:37:10;;;;;;;9.32;5.15;;;6.70;99.90;;;;;;4991352;28;20037;-78
2021/03/30 01:39:38;;;;;;;5.82;4.30;;;6.70;99.90;;;;;;4991840;28;20471;-78
2021/03/30 01:42:06;;;;;;;7.28;3.97;;;6.60;99.90;;;;;;4991393;28;20026;-78
2021/03/30 01:44:32;;;;;;;7.82;4.82;;;6.60;99.90;;;;;;4991593;28;20038;-78
2021/03/30 01:47:00;;;;;;;7.32;3.88;;;6.50;99.90;;;;;;4990650;28;20081;-78
2021/03/30 01:49:28;;;;;;;5.35;3.88;;;6.50;99.90;;;;;;4991557;28;20549;-78
2021/03/30 01:51:56;;;;;;;8.25;3.58;;;6.40;99.90;;;;;;4991218;28;20033;-78
2021/03/30 01:54:22;;;;;;;8.88;3.95;;;6.40;99.90;;;;;;4991596;28;20026;-78
2021/03/30 01:56:53;;;;;;;6.82;3.88;;;6.50;99.90;;;;;;4991001;28;20042;-78
2021/03/30 01:59:19;;;;;;;5.28;3.40;;;6.40;99.90;;;;;;4990746;28;20076;-78
2021/03/30 02:01:47;;;;;;;7.05;3.75;;;6.40;99.90;;;;;;4990846;28;20046;-78
2021/03/30 02:04:14;;;;;;;5.30;3.80;;;6.20;99.90;;;;;;4991217;28;20031;-78
2021/03/30 02:06:44;;;;;;;10.15;4.40;;;6.30;99.90;;;;;;5018432;28;20550;-77
2021/03/30 02:09:17;;;;;;;5.32;3.97;;;6.30;99.90;;;;;;5032401;28;20037;-78
2021/03/30 02:11:48;;;;;;;7.28;4.00;;;6.50;99.90;;;;;;5032802;28;20477;-78
2021/03/30 02:14:14;;;;;;;5.32;3.50;;;6.50;99.90;;;;;;5032026;28;20477;-78
2021/03/30 02:16:51;;;;;;;11.32;5.03;;;6.20;99.90;;;;;;5032595;28;20021;-78
2021/03/30 02:19:23;;;;;;;5.97;3.95;;;6.00;99.90;;;;;;5031310;28;20698;-78
2021/03/30 02:22:06;;;;;;;9.02;5.20;;;6.00;99.90;;;;;;5032440;28;20053;-78
2021/03/30 02:24:34;;;;;;;10.70;4.95;;;6.10;99.90;;;;;;5032393;28;20524;-78
2021/03/30 02:27:02;;;;;;;7.93;4.90;;;6.30;99.90;;;;;;5032401;28;20148;-78
2021/03/30 02:29:33;;;;;;;10.32;5.00;;;6.20;99.90;;;;;;5031291;28;20028;-78
2021/03/30 02:32:03;;;;;;;9.82;5.20;;;6.20;99.90;;;;;;5032220;28;20048;-78
2021/03/30 02:34:32;;;;;;;9.93;5.85;;;6.20;99.90;;;;;;5032454;28;20025;-78
2021/03/30 02:36:57;;;;;;;11.02;6.65;;;6.10;99.90;;;;;;5032417;28;20394;-78
2021/03/30 02:39:24;;;;;;;7.47;5.97;;;6.20;99.90;;;;;;5032227;28;20032;-78
2021/03/30 02:41:52;;;;;;;9.43;5.85;;;6.20;99.90;;;;;;5032368;28;20032;-78
2021/03/30 02:44:19;;;;;;;10.35;7.85;;;6.20;99.90;;;;;;5031999;28;20037;-78
2021/03/30 02:46:47;;;;;;;9.80;6.55;;;6.10;99.90;;;;;;5032260;28;20512;-78
2021/03/30 02:49:15;;;;;;;9.65;5.45;;;6.30;99.90;;;;;;5032025;28;20033;-78
2021/03/30 02:51:42;;;;;;;8.23;5.68;;;6.30;99.90;;;;;;5032245;28;20020;-78
2021/03/30 02:54:08;;;;;;;6.55;4.55;;;6.20;99.90;;;;;;5032010;28;20105;-78
2021/03/30 02:56:36;;;;;;;5.95;4.22;;;6.10;99.90;;;;;;5032005;28;20017;-78
2021/03/30 02:59:02;;;;;;;11.73;5.22;;;5.70;99.90;;;;;;5029770;28;20539;-78
2021/03/30 03:01:28;;;;;;;8.02;3.17;;;5.70;99.90;;;;;;5017236;28;20076;-78
2021/03/30 03:03:54;;;;;;;6.40;3.30;;;5.30;99.90;;;;;;5011406;28;20124;-78
2021/03/30 03:06:20;;;;;;;7.93;3.65;;;5.50;99.90;;;;;;5012128;28;20022;-78
2021/03/30 03:08:48;;;;;;;6.75;3.95;;;5.80;99.90;;;;;;5012371;28;20022;-78
2021/03/30 03:11:16;;;;;;;4.30;2.72;;;5.80;99.90;;;;;;5012078;28;20094;-78
2021/03/30 03:13:45;;;;;;;6.32;3.20;;;5.70;99.90;;;;;;5012078;28;20049;-78
2021/03/30 03:16:12;;;;;;;5.38;3.38;;;5.30;99.90;;;;;;5012026;28;20113;-78
2021/03/30 03:18:42;;;;;;;8.85;4.57;;;5.00;99.90;;;;;;5013002;28;20029;-78
2021/03/30 03:21:09;;;;;;;17.20;7.18;;;5.10;99.90;;;;;;5015923;28;20108;-78
2021/03/30 03:23:39;;;;;;;12.65;4.68;;;5.30;99.90;;;;;;5019512;28;20041;-78
2021/03/30 03:26:11;;;;;;;;;;;5.50;99.90;;;;;;5035989;28;20507;-78
2021/03/30 03:28:45;;;;;;;7.22;3.88;;;5.70;99.90;;;;;;5033930;28;20273;-78
2021/03/30 03:31:12;;;;;;;13.07;5.43;;;6.00;99.90;;;;;;5034851;28;20129;-78
2021/03/30 03:33:38;;;;;;;8.13;4.30;;;6.20;99.90;;;;;;5035534;28;20033;-78
2021/03/30 03:36:09;;;;;;;5.75;3.72;;;6.20;99.90;;;;;;5035459;28;20021;-78
2021/03/30 03:38:40;;;;;;;7.38;3.83;;;5.70;99.90;;;;;;5035467;28;20051;-78
2021/03/30 03:41:11;;;;;;;8.25;3.70;;;5.60;99.90;;;;;;5031144;28;20033;-78
2021/03/30 03:43:37;;;;;;;4.85;2.80;;;5.40;99.90;;;;;;5026473;28;20463;-78
2021/03/30 03:46:03;;;;;;;6.25;3.55;;;5.40;99.90;;;;;;5017778;28;20128;-78
2021/03/30 03:48:29;;;;;;;10.73;3.75;;;5.10;99.90;;;;;;5016203;28;20060;-78
2021/03/30 03:51:01;;;;;;;10.75;3.63;;;4.80;99.90;;;;;;5019947;28;20055;-78
2021/03/30 03:53:28;;;;;;;5.50;3.20;;;5.10;99.90;;;;;;5022570;28;20097;-77
2021/03/30 03:55:55;;;;;;;3.55;2.72;;;5.30;99.90;;;;;;5014366;28;20112;-78
2021/03/30 03:58:26;;;;;;;4.95;3.53;;;5.40;99.90;;;;;;5015545;28;20025;-78
2021/03/30 04:00:52;;;;;;;4.93;3.42;;;5.30;99.90;;;;;;5027051;28;20037;-78
2021/03/30 04:03:39;;;;;;;5.15;3.33;;;5.20;99.90;;;;;;5022279;28;20034;-77
2021/03/30 04:06:15;;;;;;;5.95;3.40;;;5.10;99.90;;;;;;5017824;28;20589;-77
2021/03/30 04:08:50;;;;;;;5.13;3.20;;;5.10;99.90;;;;;;5013866;28;20022;-78
2021/03/30 04:11:16;;;;;;;4.32;3.30;;;5.10;99.90;;;;;;5021283;28;20040;-77
2021/03/30 04:13:44;;;;;;;6.65;3.65;;;5.20;99.90;;;;;;5032803;28;20025;-78
2021/03/30 04:16:11;;;;;;;8.95;3.20;;;5.30;99.90;;;;;;5017797;28;20037;-77
2021/03/30 04:18:40;;;;;;;6.20;3.70;;;5.30;99.90;;;;;;5031214;28;20481;-78
2021/03/30 04:21:25;;;;;;;4.00;2.85;;;5.10;99.90;;;;;;5034526;28;20034;-78
2021/03/30 04:23:52;;;;;;;7.47;3.60;;;4.80;99.90;;;;;;5032935;28;20430;-78
2021/03/30 04:26:19;;;;;;;6.13;4.30;;;4.70;99.90;;;;;;5033523;28;20033;-78
2021/03/30 04:28:45;;;;;;;7.65;4.53;;;4.60;99.90;;;;;;5013900;28;20548;-78
2021/03/30 04:31:10;;;;;;;37.85;7.03;;;4.60;99.90;;;;;;5014123;28;20121;-78
2021/03/30 04:33:36;;;;;;;11.18;4.25;;;4.50;99.90;;;;;;5018546;28;20029;-78
2021/03/30 04:36:03;;;;;;;6.05;4.57;;;4.40;99.90;;;;;;5027650;28;20424;-78
2021/03/30 04:38:28;;;;;;;15.05;5.05;;;4.40;99.90;;;;;;5034207;28;20087;-78
2021/03/30 04:40:54;;;;;;;8.20;3.58;;;4.40;99.90;;;;;;5033208;28;20041;-77
2021/03/30 04:43:24;;;;;;;13.02;4.32;;;4.70;99.90;;;;;;5034194;28;20032;-78
2021/03/30 04:45:50;;;;;;;5.63;3.40;;;4.70;99.90;;;;;;5033478;28;20038;-77
2021/03/30 04:48:16;;;;;;;3.95;3.33;;;4.40;99.90;;;;;;5031808;28;20034;-78
2021/03/30 04:50:43;;;;;;;6.45;3.40;;;4.30;99.90;;;;;;5021208;28;20026;-78
2021/03/30 04:53:09;;;;;;;3.80;3.03;;;4.40;99.90;;;;;;5026585;28;20079;-77
2021/03/30 04:55:35;;;;;;;7.10;2.80;;;4.40;99.90;;;;;;5015446;28;20537;-77
2021/03/30 04:58:01;;;;;;;4.75;2.92;;;4.50;99.90;;;;;;5016476;28;20018;-78
2021/03/30 05:00:27;;;;;;;3.55;3.25;;;4.60;99.90;;;;;;5012965;28;20155;-78
2021/03/30 05:02:53;;;;;;;5.10;3.05;;;4.50;99.90;;;;;;5016934;28;20025;-77
2021/03/30 05:05:19;;;;;;;3.70;2.67;;;4.50;99.90;;;;;;5027267;28;20468;-77
2021/03/30 05:07:45;;;;;;;4.35;3.22;;;4.50;99.90;;;;;;5024149;28;20032;-77
2021/03/30 05:10:12;;;;;;;5.70;3.78;;;4.60;99.90;;;;;;5020306;28;20037;-77
2021/03/30 05:12:38;;;;;;;5.75;3.35;;;4.50;99.90;;;;;;5032745;28;20033;-77
2021/03/30 05:15:04;;;;;;;8.77;4.30;;;4.50;99.90;;;;;;5024499;28;20497;-77
2021/03/30 05:17:30;;;;;;;4.68;3.17;;;4.60;99.90;;;;;;5016667;28;20022;-77
2021/03/30 05:19:56;;;;;;;25.35;8.75;;;4.60;99.90;;;;;;5012749;28;20448;-77
2021/03/30 05:22:22;;;;;;;8.57;3.60;;;4.50;99.90;;;;;;5018996;28;20025;-77
2021/03/30 05:24:48;;;;;;;7.13;4.22;;;4.40;99.90;;;;;;5026371;28;20038;-78
2021/03/30 05:27:13;;;;;;;50.05;7.63;;;4.30;99.90;;;;;;5013173;28;20367;-78
2021/03/30 05:29:45;;;;;;;27.35;5.15;;;4.30;99.90;;;;;;5023871;28;20057;-78
2021/03/30 05:32:16;;;;;;;11.02;6.07;;;4.40;99.90;;;;;;5016955;28;20021;-79
2021/03/30 05:34:46;;;;;;;12.73;6.38;;;4.40;99.90;;;;;;5032673;28;20026;-78
2021/03/30 05:37:12;;;;;;;13.95;7.13;;;4.30;99.90;;;;;;5028027;28;20030;-78
2021/03/30 05:39:38;;;;;;;9.82;5.25;;;4.40;99.90;;;;;;5018244;28;20486;-79
2021/03/30 05:42:05;;;;;;;11.20;5.93;;;4.40;99.90;;;;;;5028076;28;20030;-78
2021/03/30 05:44:34;;;;;;;9.52;5.13;;;4.40;99.90;;;;;;5013079;28;20429;-78
2021/03/30 05:49:36;;;;;;;7.10;5.13;;;4.60;99.90;;;;;;5032216;28;20029;-79
2021/03/30 05:52:03;;;;;;;17.45;9.38;;;4.40;99.90;;;;;;5029878;28;20362;-79
2021/03/30 05:54:32;;;;;;;10.10;6.15;;;4.40;99.90;;;;;;5032851;28;20057;-79
2021/03/30 05:56:59;;;;;;;13.27;7.18;;;4.40;99.90;;;;;;5025827;28;20615;-78
2021/03/30 05:59:27;;;;;;;19.25;13.23;;;4.60;99.90;;;;;;5032294;28;20029;-78
2021/03/30 06:01:53;;;;;;;14.02;11.23;;;4.70;99.90;;;;;;5032436;28;20501;-79
2021/03/30 06:04:20;;;;;;;12.77;9.07;;;4.60;99.90;;;;;;5032906;28;20485;-78
2021/03/30 06:06:46;;;;;;;12.65;7.00;;;4.60;99.90;;;;;;5032095;28;20485;-79
2021/03/30 06:09:12;;;;;;;8.25;5.65;;;4.70;99.90;;;;;;5032593;28;20018;-77
2021/03/30 06:11:38;;;;;;;17.08;10.45;;;4.90;99.90;;;;;;5032560;28;20021;-76
2021/03/30 06:14:04;;;;;;;27.85;25.08;;;5.10;99.90;;;;;;5032587;28;20022;-76
2021/03/30 06:16:40;;;;;;;14.20;7.97;;;5.00;99.90;;;;;;5032852;28;20099;-76
2021/03/30 06:19:15;;;;;;;16.00;9.43;;;4.90;99.90;;;;;;5032443;28;20018;-76
2021/03/30 06:21:45;;;;;;;10.18;8.23;;;4.90;99.90;;;;;;5032259;28;20021;-76
2021/03/30 06:24:20;;;;;;;15.73;6.03;;;4.70;99.90;;;;;;5032411;28;20559;-76
2021/03/30 06:26:49;;;;;;;11.32;4.50;;;4.60;99.90;;;;;;5032415;28;20028;-76
2021/03/30 06:29:28;;;;;;;9.55;4.20;;;4.60;99.90;;;;;;5032254;28;20022;-76
2021/03/30 06:31:55;;;;;;;7.85;4.55;;;4.60;99.90;;;;;;5032252;28;20073;-76
2021/03/30 06:34:28;;;;;;;8.40;5.20;;;4.70;99.90;;;;;;5032362;28;20486;-76
2021/03/30 06:36:55;;;;;;;9.48;5.28;;;5.10;99.90;;;;;;5031997;28;20036;-76
2021/03/30 06:39:34;;;;;;;11.13;6.05;;;5.10;99.90;;;;;;5032453;28;20026;-76
2021/03/30 06:44:34;;;;;;;11.32;5.78;;;5.30;99.90;;;;;;5032377;28;20061;-76
2021/03/30 06:47:10;;;;;;;7.43;4.80;;;5.40;99.90;;;;;;5032174;28;20152;-76
2021/03/30 06:49:37;;;;;;;4.45;3.95;;;5.60;99.90;;;;;;5031960;28;20037;-76
2021/03/30 06:52:15;;;;;;;7.30;4.43;;;5.80;99.90;;;;;;5032227;28;20033;-76
2021/03/30 06:55:07;;;;;;;8.57;4.47;;;6.00;99.90;;;;;;5034663;28;20014;-76
2021/03/30 06:57:46;;;;;;;7.30;4.25;;;6.10;99.90;;;;;;5015040;28;20080;-76
2021/03/30 07:00:21;;;;;;;6.30;4.05;;;6.20;99.90;;;;;;5016317;28;20030;-76
2021/03/30 07:02:51;;;;;;;7.75;4.75;;;6.30;99.90;;;;;;5016210;28;20036;-76
2021/03/30 07:05:21;;;;;;;;;;;6.50;99.90;;;;;;5016437;28;20053;-76
2021/03/30 07:07:51;;;;;;;5.28;4.05;;;6.70;99.90;;;;;;5016408;28;19909;-76
2021/03/30 07:10:18;;;;;;;13.10;5.30;;;6.80;99.90;;;;;;5014752;28;20453;-76
2021/03/30 07:12:45;;;;;;;8.23;6.95;;;6.90;99.90;;;;;;5016001;28;20026;-76
2021/03/30 07:15:11;;;;;;;11.00;6.80;;;7.00;99.90;;;;;;5016124;28;20021;-76
2021/03/30 07:17:41;;;;;;;12.32;6.63;;;7.10;99.90;;;;;;5016123;28;20026;-76
2021/03/30 07:20:09;;;;;;;12.73;7.35;;;7.20;99.90;;;;;;5015557;28;20018;-76
2021/03/30 07:22:37;;;;;;;8.15;4.82;;;7.30;99.90;;;;;;5016062;28;20080;-75
2021/03/30 07:25:05;;;;;;;6.30;4.93;;;7.40;99.90;;;;;;5015790;28;20026;-76
2021/03/30 07:27:39;;;;;;;9.52;4.82;;;7.40;99.90;;;;;;5015855;28;20053;-76
2021/03/30 07:30:06;;;;;;;4.07;3.55;;;7.60;99.90;;;;;;5015691;28;20034;-76
2021/03/30 07:32:41;;;;;;;6.50;3.78;;;7.80;99.90;;;;;;5015818;28;20026;-76
2021/03/30 07:35:20;;;;;;;4.60;2.90;;;7.90;99.90;;;;;;5015364;28;20056;-76
2021/03/30 07:38:07;;;;;;;5.93;3.00;;;8.00;99.90;;;;;;5015799;28;20022;-76
2021/03/30 07:40:37;;;;;;;11.55;4.30;;;8.10;99.90;;;;;;5015550;28;20498;-76
2021/03/30 07:43:04;;;;;;;;;;;8.30;99.90;;;;;;5016081;28;20034;-76
2021/03/30 07:45:33;;;;;;;6.30;3.90;;;8.50;99.90;;;;;;5015639;28;20619;-76
2021/03/30 07:48:00;;;;;;;7.10;3.70;;;8.90;99.90;;;;;;5015016;28;20494;-76
2021/03/30 07:51:10;;;;;;;4.53;3.20;;;9.40;99.90;;;;;;5013979;28;20117;-76
2021/03/30 07:53:55;;;;;;;9.93;4.30;;;9.70;99.90;;;;;;5015455;28;20508;-76
2021/03/30 07:56:24;;;;;;;7.47;3.78;;;10.10;99.90;;;;;;5015212;28;20528;-76
2021/03/30 07:58:51;;;;;;;7.45;3.53;;;10.40;99.90;;;;;;5015316;28;20056;-76
2021/03/30 08:01:22;;;;;;;4.75;3.00;;;10.60;99.90;;;;;;5015001;28;20053;-76
2021/03/30 08:03:50;;;;;;;5.57;3.63;;;10.90;99.50;;;;;;5014699;28;20448;-76
2021/03/30 08:06:24;;;;;;;5.30;3.28;;;11.20;99.90;;;;;;5014583;28;20100;-76
2021/03/30 08:08:58;;;;;;;5.00;2.65;;;11.40;99.90;;;;;;5015096;28;20367;-76
2021/03/30 08:11:39;;;;;;;8.13;3.25;;;11.30;98.90;;;;;;5014628;28;20086;-76
2021/03/30 08:14:28;;;;;;;7.85;3.70;;;11.40;99.60;;;;;;5014902;28;20506;-76
2021/03/30 08:17:00;;;;;;;7.68;3.17;;;11.90;99.90;;;;;;5014430;28;20041;-76
2021/03/30 08:19:27;;;;;;;9.00;3.00;;;12.50;96.80;;;;;;5014884;28;20040;-76
2021/03/30 08:21:57;;;;;;;7.22;2.67;;;13.00;94.50;;;;;;5014838;28;20057;-76
2021/03/30 08:24:24;;;;;;;6.25;3.35;;;13.20;91.10;;;;;;5013429;28;20681;-76
2021/03/30 08:26:50;;;;;;;7.53;2.80;;;13.50;91.00;;;;;;5014845;28;20036;-76
2021/03/30 08:29:23;;;;;;;4.70;2.75;;;13.90;91.50;;;;;;5014518;28;20465;-76
2021/03/30 08:31:51;;;;;;;8.25;3.47;;;14.30;89.50;;;;;;5014164;28;20172;-76
2021/03/30 08:34:22;;;;;;;11.30;3.58;;;14.70;88.30;;;;;;5014526;28;20030;-76
2021/03/30 08:36:54;;;;;;;11.18;2.70;;;15.20;84.80;;;;;;5014542;28;20026;-76
2021/03/30 08:39:20;;;;;;;9.32;3.20;;;15.60;79.30;;;;;;5013276;28;20057;-76
2021/03/30 08:41:46;;;;;;;3.45;2.00;;;16.00;76.00;;;;;;5014625;28;20077;-77
2021/03/30 08:44:23;;;;;;;6.50;1.90;;;16.50;72.80;;;;;;5014285;28;20029;-77
2021/03/30 08:46:56;;;;;;;3.58;2.03;;;17.00;73.00;;;;;;5012703;28;20113;-77
2021/03/30 08:49:37;;;;;;;4.68;2.40;;;17.40;72.10;;;;;;5014114;28;20030;-77
2021/03/30 08:52:10;;;;;;;5.82;2.08;;;18.20;69.30;;;;;;5014259;28;20026;-77
2021/03/30 08:54:53;;;;;;;6.22;1.98;;;21.40;58.20;;;;;;5012780;28;20030;-77
2021/03/30 08:57:31;;;;;;;5.30;1.88;;;22.60;52.70;;;;;;5014136;28;20029;-77
2021/03/30 08:59:59;;;;;;;6.32;2.08;;;23.30;51.30;;;;;;5013823;28;20481;-77
2021/03/30 09:02:27;;;;;;;3.75;2.20;;;23.00;51.90;;;;;;5014015;28;20505;-77
2021/03/30 09:04:53;;;;;;;5.28;2.35;;;23.90;48.90;;;;;;5012805;28;20049;-77
2021/03/30 09:07:20;;;;;;;4.03;2.20;;;24.60;48.90;;;;;;5013852;28;20028;-77
2021/03/30 09:09:47;;;;;;;4.70;2.28;;;24.30;47.80;;;;;;5014015;28;20030;-77
2021/03/30 09:12:18;;;;;;;8.13;3.25;;;24.50;46.60;;;;;;5013923;28;20029;-78
2021/03/30 09:14:58;;;;;;;5.97;2.67;;;25.20;46.30;;;;;;5012293;28;20076;-78
2021/03/30 09:17:24;;;;;;;3.70;2.40;;;25.60;45.70;;;;;;5012782;28;20029;-78
2021/03/30 09:19:51;;;;;;;6.63;2.90;;;26.90;44.80;;;;;;5013984;28;20022;-78
2021/03/30 09:22:39;;;;;;;3.78;2.88;;;26.00;43.30;;;;;;5013863;28;20026;-78
2021/03/30 09:27:54;;;;;;;6.75;3.00;;;25.50;45.30;;;;;;5013559;28;20026;-78
2021/03/30 09:30:22;;;;;;;4.80;2.45;;;26.60;43.20;;;;;;5013001;28;20498;-78
2021/03/30 09:32:49;;;;;;;6.38;3.60;;;27.00;45.00;;;;;;5013553;28;20022;-78
2021/03/30 09:35:20;;;;;;;5.43;2.63;;;26.80;45.50;;;;;;5013507;28;20478;-78
2021/03/30 09:37:52;;;;;;;5.22;3.38;;;26.50;43.50;;;;;;5013492;28;20466;-78
2021/03/30 09:40:24;;;;;;;6.20;2.58;;;26.60;45.60;;;;;;5013501;28;20029;-78
2021/03/30 09:42:51;;;;;;;10.38;3.45;;;27.50;43.50;;;;;;5013281;28;20049;-78
2021/03/30 09:45:28;;;;;;;2.65;2.40;;;27.70;43.60;;;;;;5013055;28;20057;-78
2021/03/30 09:47:55;;;;;;;2.50;2.30;;;27.80;44.30;;;;;;5013356;28;20478;-78
2021/03/30 09:50:23;;;;;;;10.15;3.97;;;28.90;42.70;;;;;;5013277;28;20545;-78
2021/03/30 09:52:50;;;;;;;3.88;2.58;;;28.00;42.00;;;;;;5013084;28;20026;-78
2021/03/30 09:55:37;;;;;;;2.58;2.30;;;27.50;45.20;;;;;;5013002;28;20057;-78
2021/03/30 09:58:06;;;;;;;6.43;2.92;;;28.40;43.20;;;;;;5012894;28;20079;-78
2021/03/30 10:00:34;;;;;;;4.60;2.60;;;28.10;41.60;;;;;;5012936;28;20042;-78
2021/03/30 10:03:01;;;;;;;4.28;2.45;;;27.10;44.60;;;;;;5013256;28;20490;-78
2021/03/30 10:05:39;;;;;;;4.65;2.90;;;28.10;40.50;;;;;;5012989;28;20113;-78
2021/03/30 10:08:16;;;;;;;4.63;3.35;;;27.80;43.40;;;;;;5013019;28;20022;-79
2021/03/30 10:10:55;;;;;;;4.95;3.72;;;28.50;42.10;;;;;;5012901;28;20060;-78
2021/03/30 10:13:24;;;;;;;6.38;3.38;;;28.70;40.30;;;;;;5012635;28;20022;-78
2021/03/30 10:15:50;;;;;;;4.75;3.35;;;29.40;39.90;;;;;;5012968;28;20034;-78
2021/03/30 10:18:17;;;;;;;7.22;2.88;;;29.30;40.20;;;;;;5012840;28;20033;-79
2021/03/30 10:20:47;;;;;;;3.17;2.50;;;29.60;41.00;;;;;;5012588;28;20116;-78
2021/03/30 10:23:18;;;;;;;7.30;2.88;;;29.20;40.60;;;;;;5012936;28;20033;-78
2021/03/30 10:25:44;;;;;;;5.28;2.75;;;28.90;41.10;;;;;;5012640;28;20052;-78
2021/03/30 10:28:11;;;;;;;4.03;2.75;;;29.80;40.30;;;;;;5012335;28;20485;-78
2021/03/30 10:31:24;;;;;;;4.43;2.55;;;29.70;38.50;;;;;;5012278;28;20093;-78
2021/03/30 10:33:42;;;;;;;24.85;4.07;;;30.40;37.80;;;;;;5006958;28;20061;-78
2021/03/30 10:36:13;;;;;;;5.20;2.75;;;30.60;41.20;;;;;;5011520;28;20397;-78
2021/03/30 10:38:41;;;;;;;3.80;2.70;;;30.50;37.30;;;;;;5012700;28;20033;-78
2021/03/30 10:41:09;;;;;;;3.35;2.47;;;29.80;38.60;;;;;;5012746;28;20056;-78
2021/03/30 10:43:35;;;;;;;4.30;2.47;;;30.50;39.30;;;;;;5012116;28;20112;-78
2021/03/30 10:46:16;;;;;;;28.00;3.22;;;30.10;39.20;;;;;;5012706;28;20037;-79
2021/03/30 10:49:05;;;;;;;4.10;2.50;;;29.80;38.20;;;;;;5012472;28;20026;-79
2021/03/30 10:51:33;;;;;;;3.58;2.58;;;31.00;40.30;;;;;;5012550;28;20033;-79
2021/03/30 10:54:01;;;;;;;5.10;3.28;;;31.40;38.80;;;;;;5012423;28;20018;-78
2021/03/30 10:56:30;;;;;;;3.40;2.72;;;30.70;37.50;;;;;;5012077;28;20030;-78
2021/03/30 10:58:56;;;;;;;5.93;2.55;;;31.50;40.00;;;;;;5012495;28;20110;-78
2021/03/30 11:01:22;;;;;;;3.67;2.60;;;32.10;36.70;;;;;;5012444;28;20117;-78
2021/03/30 11:03:48;;;;;;;4.65;2.75;;;31.30;38.40;;;;;;5012355;28;20014;-78
2021/03/30 11:06:14;;;;;;;3.50;3.20;;;31.60;36.20;;;;;;5012381;28;20030;-78
2021/03/30 11:08:40;;;;;;;3.88;2.60;;;33.20;36.90;;;;;;5012095;28;20490;-78
2021/03/30 11:11:06;;;;;;;3.53;2.55;;;32.20;36.40;;;;;;5012125;28;20030;-78
2021/03/30 11:13:31;;;;;;;7.20;3.60;;;31.70;37.40;;;;;;5011063;28;20192;-78
2021/03/30 11:15:57;;;;;;;4.10;2.88;;;32.80;35.30;;;;;;5012001;28;20026;-78
2021/03/30 11:18:23;;;;;;;3.65;2.58;;;32.40;35.90;;;;;;5012336;28;20025;-78
2021/03/30 11:20:48;;;;;;;4.13;3.08;;;32.50;37.40;;;;;;5012220;28;20069;-78
2021/03/30 11:23:14;;;;;;;5.35;2.90;;;33.00;35.80;;;;;;5012244;28;20061;-78
2021/03/30 11:25:40;;;;;;;3.75;2.70;;;32.50;35.00;;;;;;5011946;28;20405;-78
2021/03/30 11:28:09;;;;;;;6.68;3.63;;;31.80;36.70;;;;;;5012056;28;20104;-78
2021/03/30 11:31:22;;;;;;;4.55;2.80;;;32.20;37.70;;;;;;5011949;28;20116;-78
2021/03/30 11:33:38;;;;;;;3.38;2.50;;;32.50;37.80;;;;;;5009897;28;20054;-78
2021/03/30 11:36:12;;;;;;;4.35;3.67;;;32.90;35.20;;;;;;5012105;28;20105;-78
2021/03/30 11:38:38;;;;;;;3.55;2.70;;;31.80;35.40;;;;;;5010821;28;20108;-78
2021/03/30 11:41:04;;;;;;;7.18;2.67;;;32.30;36.10;;;;;;5014585;28;20096;-79
2021/03/30 11:43:30;;;;;;;5.20;2.38;;;33.10;35.20;;;;;;5015555;28;20025;-78
2021/03/30 11:45:55;;;;;;;4.75;3.10;;;32.40;35.70;;;;;;5015463;28;20442;-78
2021/03/30 11:48:21;;;;;;;4.80;2.78;;;33.00;35.00;;;;;;5015538;28;20097;-78
2021/03/30 11:50:49;;;;;;;5.22;3.50;;;32.70;36.40;;;;;;5015145;28;20033;-78
2021/03/30 11:53:15;;;;;;;4.65;2.85;;;34.10;36.30;;;;;;5015442;28;20026;-78
2021/03/30 11:55:40;;;;;;;8.23;3.78;;;34.00;34.50;;;;;;5015212;28;20026;-78
2021/03/30 11:58:06;;;;;;;4.95;2.80;;;34.10;33.50;;;;;;5015248;28;20120;-78
2021/03/30 12:00:32;;;;;;;5.88;3.50;;;33.30;36.60;;;;;;5014167;28;20038;-78
2021/03/30 12:02:58;;;;;;;4.53;2.90;;;33.70;34.60;;;;;;5015139;28;20030;-79
2021/03/30 12:05:24;;;;;;;4.95;3.15;;;34.20;34.50;;;;;;5015446;28;20108;-79
2021/03/30 12:07:51;;;;;;;5.07;3.08;;;34.60;33.00;;;;;;5015241;28;20393;-79
2021/03/30 12:10:17;;;;;;;7.63;3.08;;;33.70;33.50;;;;;;5014792;28;20037;-79
2021/03/30 12:12:43;;;;;;;4.00;3.15;;;33.60;34.50;;;;;;5014956;28;20394;-79
2021/03/30 12:15:11;;;;;;;6.03;3.05;;;33.40;36.40;;;;;;5015014;28;20479;-79
2021/03/30 12:17:38;;;;;;;4.78;2.78;;;34.00;34.20;;;;;;5013716;28;20018;-78
2021/03/30 12:20:06;;;;;;;4.05;2.65;;;33.70;34.10;;;;;;5014787;28;20034;-79
2021/03/30 12:22:32;;;;;;;6.18;2.80;;;33.60;34.10;;;;;;5015021;28;20026;-79
2021/03/30 12:24:59;;;;;;;6.50;3.30;;;34.00;33.70;;;;;;5014457;28;20058;-79
2021/03/30 12:27:25;;;;;;;4.20;2.95;;;34.40;33.80;;;;;;5014699;28;20030;-79
2021/03/30 12:29:51;;;;;;;3.25;2.92;;;33.80;33.90;;;;;;5014439;28;20029;-79
2021/03/30 12:32:17;;;;;;;4.72;3.60;;;33.20;35.00;;;;;;5013309;28;20535;-79
2021/03/30 12:34:43;;;;;;;6.72;3.05;;;34.00;35.30;;;;;;5013463;28;20037;-79
2021/03/30 12:37:10;;;;;;;10.07;3.83;;;34.30;35.70;;;;;;5013159;28;20075;-79
2021/03/30 12:39:36;;;;;;;3.95;2.80;;;34.70;34.60;;;;;;5014295;28;20459;-79
2021/03/30 12:42:03;;;;;;;5.82;3.13;;;34.70;34.50;;;;;;5014411;28;20030;-79
2021/03/30 12:44:29;;;;;;;3.95;3.45;;;33.90;35.30;;;;;;5014644;28;20030;-79
2021/03/30 12:46:55;;;;;;;5.07;3.15;;;32.80;34.20;;;;;;5014315;28;20041;-79
2021/03/30 12:49:22;;;;;;;4.95;3.10;;;33.80;34.50;;;;;;5013999;28;20405;-79
2021/03/30 12:51:49;;;;;;;5.53;2.95;;;33.40;35.60;;;;;;5013106;28;20025;-79
2021/03/30 12:54:15;;;;;;;6.70;3.03;;;33.50;34.10;;;;;;5013949;28;20502;-79
2021/03/30 12:56:41;;;;;;;6.95;2.83;;;33.30;34.60;;;;;;5012805;28;20022;-79
2021/03/30 12:59:07;;;;;;;4.18;3.13;;;33.10;35.00;;;;;;5014135;28;20037;-79
2021/03/30 13:01:33;;;;;;;4.53;3.10;;;32.50;36.30;;;;;;5014135;28;20109;-79
2021/03/30 13:03:59;;;;;;;5.20;2.97;;;32.90;36.40;;;;;;5014074;28;20505;-79
2021/03/30 13:06:25;;;;;;;4.82;2.80;;;33.10;36.10;;;;;;5014079;28;20026;-79
2021/03/30 13:08:51;;;;;;;3.78;3.28;;;33.60;35.40;;;;;;5013662;28;20414;-79
2021/03/30 13:11:16;;;;;;;4.80;3.33;;;33.20;35.70;;;;;;5013711;28;20057;-79
2021/03/30 13:13:42;;;;;;;7.25;3.25;;;32.60;35.10;;;;;;5014071;28;20441;-79